sensor_id;sensor_type;location;lat;lon;timestamp;P1;durP1;ratioP1;P2;durP2;ratioP2
24147;SDS011;12309;51.450;-2.624;2022-12-18T00:00:29;24.67;;;10.60;;
24147;SDS011;12309;51.450;-2.624;2022-12-18T00:02:55;21.90;;;9.27;;
24147;SDS011;12309;51.450;-2.624;2022-12-18T00:05:21;20.93;;;9.13;;
24147;SDS011;12309;51.450;-2.624;2022-12-18T00:07:46;22.57;;;9.97;;
24147;SDS011;12309;51.450;-2.624;2022-12-18T00:10:12;24.47;;;10.80;;
24147;SDS011;12309;51.450;-2.624;2022-12-18T00:12:38;23.33;;;10.73;;
24147;SDS011;12309;51.450;-2.624;2022-12-18T00:15:04;25.67;;;10.70;;
24147;SDS011;12309;51.450;-2.624;2022-12-18T00:17:30;22.83;;;10.77;;
24147;SDS011;12309;51.450;-2.624;2022-12-18T00:19:56;28.57;;;10.23;;
24147;SDS011;12309;51.450;-2.624;2022-12-18T00:22:22;20.60;;;10.80;;
24147;SDS011;12309;51.450;-2.624;2022-12-18T00:24:48;22.83;;;10.30;;
24147;SDS011;12309;51.450;-2.624;2022-12-18T00:27:14;17.47;;;9.70;;
24147;SDS011;12309;51.450;-2.624;2022-12-18T00:29:40;22.60;;;10.00;;
24147;SDS011;12309;51.450;-2.624;2022-12-18T00:32:06;22.00;;;9.30;;
24147;SDS011;12309;51.450;-2.624;2022-12-18T00:34:32;22.87;;;10.77;;
24147;SDS011;12309;51.450;-2.624;2022-12-18T00:36:57;18.07;;;9.07;;
24147;SDS011;12309;51.450;-2.624;2022-12-18T00:39:23;22.63;;;9.90;;
24147;SDS011;12309;51.450;-2.624;2022-12-18T00:41:49;19.20;;;9.60;;
24147;SDS011;12309;51.450;-2.624;2022-12-18T00:44:34;23.23;;;9.77;;
24147;SDS011;12309;51.450;-2.624;2022-12-18T00:47:00;20.67;;;9.07;;
24147;SDS011;12309;51.450;-2.624;2022-12-18T00:49:26;18.87;;;8.70;;
24147;SDS011;12309;51.450;-2.624;2022-12-18T00:51:52;20.17;;;8.87;;
24147;SDS011;12309;51.450;-2.624;2022-12-18T00:54:20;21.93;;;9.53;;
24147;SDS011;12309;51.450;-2.624;2022-12-18T00:56:46;21.03;;;9.60;;
24147;SDS011;12309;51.450;-2.624;2022-12-18T00:59:12;19.57;;;8.67;;
24147;SDS011;12309;51.450;-2.624;2022-12-18T01:01:37;22.13;;;9.20;;
24147;SDS011;12309;51.450;-2.624;2022-12-18T01:04:03;26.23;;;9.70;;
24147;SDS011;12309;51.450;-2.624;2022-12-18T01:06:29;19.00;;;8.70;;
24147;SDS011;12309;51.450;-2.624;2022-12-18T01:08:55;16.87;;;8.37;;
24147;SDS011;12309;51.450;-2.624;2022-12-18T01:11:22;16.93;;;8.63;;
24147;SDS011;12309;51.450;-2.624;2022-12-18T01:13:48;21.33;;;7.90;;
24147;SDS011;12309;51.450;-2.624;2022-12-18T01:16:15;20.47;;;8.73;;
24147;SDS011;12309;51.450;-2.624;2022-12-18T01:18:41;16.53;;;7.97;;
24147;SDS011;12309;51.450;-2.624;2022-12-18T01:21:08;17.70;;;8.57;;
24147;SDS011;12309;51.450;-2.624;2022-12-18T01:23:35;20.87;;;8.80;;
24147;SDS011;12309;51.450;-2.624;2022-12-18T01:26:08;20.07;;;9.27;;
24147;SDS011;12309;51.450;-2.624;2022-12-18T01:28:37;19.53;;;8.50;;
24147;SDS011;12309;51.450;-2.624;2022-12-18T01:31:10;25.73;;;8.70;;
24147;SDS011;12309;51.450;-2.624;2022-12-18T01:33:43;17.40;;;8.67;;
24147;SDS011;12309;51.450;-2.624;2022-12-18T01:36:14;20.97;;;9.00;;
24147;SDS011;12309;51.450;-2.624;2022-12-18T01:38:40;19.07;;;8.83;;
24147;SDS011;12309;51.450;-2.624;2022-12-18T01:41:08;17.97;;;7.93;;
24147;SDS011;12309;51.450;-2.624;2022-12-18T01:43:41;22.70;;;8.20;;
24147;SDS011;12309;51.450;-2.624;2022-12-18T01:46:06;21.40;;;8.30;;
24147;SDS011;12309;51.450;-2.624;2022-12-18T01:48:32;18.60;;;7.77;;
24147;SDS011;12309;51.450;-2.624;2022-12-18T01:50:58;20.97;;;7.77;;
24147;SDS011;12309;51.450;-2.624;2022-12-18T01:53:25;17.53;;;8.07;;
24147;SDS011;12309;51.450;-2.624;2022-12-18T01:55:53;17.13;;;7.90;;
24147;SDS011;12309;51.450;-2.624;2022-12-18T02:01:18;17.43;;;8.50;;
24147;SDS011;12309;51.450;-2.624;2022-12-18T02:03:46;19.13;;;8.50;;
24147;SDS011;12309;51.450;-2.624;2022-12-18T02:25:34;16.43;;;8.03;;
24147;SDS011;12309;51.450;-2.624;2022-12-18T02:28:23;15.23;;;7.17;;
24147;SDS011;12309;51.450;-2.624;2022-12-18T02:30:53;18.53;;;8.07;;
24147;SDS011;12309;51.450;-2.624;2022-12-18T02:33:24;15.73;;;7.60;;
24147;SDS011;12309;51.450;-2.624;2022-12-18T02:35:51;15.20;;;6.93;;
24147;SDS011;12309;51.450;-2.624;2022-12-18T02:38:19;16.33;;;7.67;;
24147;SDS011;12309;51.450;-2.624;2022-12-18T02:40:45;16.53;;;7.80;;
24147;SDS011;12309;51.450;-2.624;2022-12-18T02:43:13;17.73;;;7.80;;
24147;SDS011;12309;51.450;-2.624;2022-12-18T02:45:55;19.33;;;7.87;;
24147;SDS011;12309;51.450;-2.624;2022-12-18T02:48:28;20.57;;;8.40;;
24147;SDS011;12309;51.450;-2.624;2022-12-18T02:53:57;23.17;;;8.07;;
24147;SDS011;12309;51.450;-2.624;2022-12-18T02:56:54;16.40;;;8.27;;
24147;SDS011;12309;51.450;-2.624;2022-12-18T02:59:34;24.60;;;9.57;;
24147;SDS011;12309;51.450;-2.624;2022-12-18T03:04:50;17.97;;;8.20;;
24147;SDS011;12309;51.450;-2.624;2022-12-18T03:07:41;21.00;;;8.20;;
24147;SDS011;12309;51.450;-2.624;2022-12-18T03:10:13;16.93;;;7.77;;
24147;SDS011;12309;51.450;-2.624;2022-12-18T03:12:43;15.77;;;6.83;;
24147;SDS011;12309;51.450;-2.624;2022-12-18T03:15:17;17.63;;;7.70;;
24147;SDS011;12309;51.450;-2.624;2022-12-18T03:17:55;17.40;;;7.30;;
24147;SDS011;12309;51.450;-2.624;2022-12-18T03:20:24;17.87;;;7.60;;
24147;SDS011;12309;51.450;-2.624;2022-12-18T03:22:57;16.63;;;8.27;;
24147;SDS011;12309;51.450;-2.624;2022-12-18T03:25:29;16.50;;;8.03;;
24147;SDS011;12309;51.450;-2.624;2022-12-18T03:27:56;22.47;;;8.63;;
24147;SDS011;12309;51.450;-2.624;2022-12-18T03:30:24;15.23;;;7.73;;
24147;SDS011;12309;51.450;-2.624;2022-12-18T03:35:41;19.63;;;7.90;;
24147;SDS011;12309;51.450;-2.624;2022-12-18T03:38:08;19.10;;;8.53;;
24147;SDS011;12309;51.450;-2.624;2022-12-18T03:40:40;20.07;;;7.80;;
24147;SDS011;12309;51.450;-2.624;2022-12-18T03:43:11;16.30;;;8.00;;
24147;SDS011;12309;51.450;-2.624;2022-12-18T03:45:48;17.83;;;8.27;;
24147;SDS011;12309;51.450;-2.624;2022-12-18T03:48:31;21.47;;;8.53;;
24147;SDS011;12309;51.450;-2.624;2022-12-18T03:51:22;21.47;;;8.47;;
24147;SDS011;12309;51.450;-2.624;2022-12-18T03:54:06;16.97;;;8.10;;
24147;SDS011;12309;51.450;-2.624;2022-12-18T03:56:45;25.03;;;7.60;;
24147;SDS011;12309;51.450;-2.624;2022-12-18T03:59:16;20.00;;;8.00;;
24147;SDS011;12309;51.450;-2.624;2022-12-18T04:01:45;22.70;;;7.90;;
24147;SDS011;12309;51.450;-2.624;2022-12-18T04:04:14;17.53;;;7.37;;
24147;SDS011;12309;51.450;-2.624;2022-12-18T04:06:42;17.37;;;8.40;;
24147;SDS011;12309;51.450;-2.624;2022-12-18T04:09:10;21.67;;;7.70;;
24147;SDS011;12309;51.450;-2.624;2022-12-18T04:11:36;19.70;;;7.10;;
24147;SDS011;12309;51.450;-2.624;2022-12-18T04:14:02;22.30;;;8.00;;
24147;SDS011;12309;51.450;-2.624;2022-12-18T04:16:27;17.73;;;7.87;;
24147;SDS011;12309;51.450;-2.624;2022-12-18T04:18:54;15.70;;;7.67;;
24147;SDS011;12309;51.450;-2.624;2022-12-18T04:21:20;16.03;;;7.93;;
24147;SDS011;12309;51.450;-2.624;2022-12-18T04:23:46;18.93;;;8.10;;
24147;SDS011;12309;51.450;-2.624;2022-12-18T04:26:12;19.97;;;8.60;;
24147;SDS011;12309;51.450;-2.624;2022-12-18T04:28:38;19.57;;;8.73;;
24147;SDS011;12309;51.450;-2.624;2022-12-18T04:31:04;24.43;;;9.20;;
24147;SDS011;12309;51.450;-2.624;2022-12-18T04:33:30;20.43;;;8.90;;
24147;SDS011;12309;51.450;-2.624;2022-12-18T04:35:56;22.03;;;8.73;;
24147;SDS011;12309;51.450;-2.624;2022-12-18T04:38:22;19.87;;;8.90;;
24147;SDS011;12309;51.450;-2.624;2022-12-18T04:40:48;23.33;;;9.93;;
24147;SDS011;12309;51.450;-2.624;2022-12-18T04:43:14;23.90;;;9.57;;
24147;SDS011;12309;51.450;-2.624;2022-12-18T04:45:40;24.43;;;9.37;;
24147;SDS011;12309;51.450;-2.624;2022-12-18T04:48:05;23.30;;;9.43;;
24147;SDS011;12309;51.450;-2.624;2022-12-18T04:50:31;23.30;;;9.30;;
24147;SDS011;12309;51.450;-2.624;2022-12-18T04:52:57;25.40;;;10.10;;
24147;SDS011;12309;51.450;-2.624;2022-12-18T04:55:23;26.30;;;9.53;;
24147;SDS011;12309;51.450;-2.624;2022-12-18T04:57:49;20.77;;;10.00;;
24147;SDS011;12309;51.450;-2.624;2022-12-18T05:00:15;23.33;;;9.67;;
24147;SDS011;12309;51.450;-2.624;2022-12-18T05:02:41;26.37;;;10.20;;
24147;SDS011;12309;51.450;-2.624;2022-12-18T05:05:07;25.10;;;10.53;;
24147;SDS011;12309;51.450;-2.624;2022-12-18T05:07:33;21.67;;;10.07;;
24147;SDS011;12309;51.450;-2.624;2022-12-18T05:09:59;25.93;;;10.60;;
24147;SDS011;12309;51.450;-2.624;2022-12-18T05:12:25;27.43;;;10.83;;
24147;SDS011;12309;51.450;-2.624;2022-12-18T05:14:50;22.17;;;10.57;;
24147;SDS011;12309;51.450;-2.624;2022-12-18T05:17:16;23.23;;;11.03;;
24147;SDS011;12309;51.450;-2.624;2022-12-18T05:19:42;23.47;;;10.30;;
24147;SDS011;12309;51.450;-2.624;2022-12-18T05:22:08;19.53;;;9.97;;
24147;SDS011;12309;51.450;-2.624;2022-12-18T05:24:35;29.20;;;11.23;;
24147;SDS011;12309;51.450;-2.624;2022-12-18T05:27:00;24.30;;;10.87;;
24147;SDS011;12309;51.450;-2.624;2022-12-18T05:29:26;22.13;;;10.77;;
24147;SDS011;12309;51.450;-2.624;2022-12-18T05:31:52;19.37;;;10.17;;
24147;SDS011;12309;51.450;-2.624;2022-12-18T05:34:18;24.30;;;11.40;;
24147;SDS011;12309;51.450;-2.624;2022-12-18T05:36:44;23.77;;;11.10;;
24147;SDS011;12309;51.450;-2.624;2022-12-18T05:39:10;29.17;;;10.70;;
24147;SDS011;12309;51.450;-2.624;2022-12-18T05:41:36;26.63;;;12.03;;
24147;SDS011;12309;51.450;-2.624;2022-12-18T05:44:02;30.83;;;11.40;;
24147;SDS011;12309;51.450;-2.624;2022-12-18T05:46:28;27.53;;;11.77;;
24147;SDS011;12309;51.450;-2.624;2022-12-18T05:48:54;25.83;;;11.93;;
24147;SDS011;12309;51.450;-2.624;2022-12-18T05:51:20;31.70;;;12.13;;
24147;SDS011;12309;51.450;-2.624;2022-12-18T05:53:47;25.17;;;11.60;;
24147;SDS011;12309;51.450;-2.624;2022-12-18T05:56:14;25.03;;;12.53;;
24147;SDS011;12309;51.450;-2.624;2022-12-18T05:58:42;26.60;;;12.37;;
24147;SDS011;12309;51.450;-2.624;2022-12-18T06:01:09;28.97;;;12.10;;
24147;SDS011;12309;51.450;-2.624;2022-12-18T06:03:41;31.57;;;12.93;;
24147;SDS011;12309;51.450;-2.624;2022-12-18T06:06:17;30.40;;;12.30;;
24147;SDS011;12309;51.450;-2.624;2022-12-18T06:09:01;28.63;;;11.63;;
24147;SDS011;12309;51.450;-2.624;2022-12-18T06:11:33;28.90;;;12.47;;
24147;SDS011;12309;51.450;-2.624;2022-12-18T06:14:00;32.53;;;13.00;;
24147;SDS011;12309;51.450;-2.624;2022-12-18T06:16:26;30.23;;;13.27;;
24147;SDS011;12309;51.450;-2.624;2022-12-18T06:18:53;27.10;;;12.87;;
24147;SDS011;12309;51.450;-2.624;2022-12-18T06:21:25;33.47;;;13.37;;
24147;SDS011;12309;51.450;-2.624;2022-12-18T06:23:51;31.63;;;12.83;;
24147;SDS011;12309;51.450;-2.624;2022-12-18T06:26:16;28.47;;;12.70;;
24147;SDS011;12309;51.450;-2.624;2022-12-18T06:28:42;29.23;;;12.30;;
24147;SDS011;12309;51.450;-2.624;2022-12-18T06:31:08;33.93;;;13.07;;
24147;SDS011;12309;51.450;-2.624;2022-12-18T06:33:34;28.23;;;12.23;;
24147;SDS011;12309;51.450;-2.624;2022-12-18T06:36:02;31.17;;;12.37;;
24147;SDS011;12309;51.450;-2.624;2022-12-18T06:38:29;31.73;;;12.77;;
24147;SDS011;12309;51.450;-2.624;2022-12-18T06:40:56;27.40;;;12.80;;
24147;SDS011;12309;51.450;-2.624;2022-12-18T06:43:21;30.73;;;12.43;;
24147;SDS011;12309;51.450;-2.624;2022-12-18T06:45:47;29.77;;;12.47;;
24147;SDS011;12309;51.450;-2.624;2022-12-18T06:48:18;28.70;;;11.87;;
24147;SDS011;12309;51.450;-2.624;2022-12-18T06:50:44;27.53;;;11.90;;
24147;SDS011;12309;51.450;-2.624;2022-12-18T06:53:10;27.37;;;12.97;;
24147;SDS011;12309;51.450;-2.624;2022-12-18T06:55:36;30.63;;;11.63;;
24147;SDS011;12309;51.450;-2.624;2022-12-18T06:58:02;27.83;;;11.87;;
24147;SDS011;12309;51.450;-2.624;2022-12-18T07:00:28;27.57;;;12.20;;
24147;SDS011;12309;51.450;-2.624;2022-12-18T07:02:54;25.87;;;11.53;;
24147;SDS011;12309;51.450;-2.624;2022-12-18T07:05:20;28.80;;;12.27;;
24147;SDS011;12309;51.450;-2.624;2022-12-18T07:07:46;27.27;;;13.20;;
24147;SDS011;12309;51.450;-2.624;2022-12-18T07:10:11;28.17;;;11.87;;
24147;SDS011;12309;51.450;-2.624;2022-12-18T07:12:37;31.97;;;12.10;;
24147;SDS011;12309;51.450;-2.624;2022-12-18T07:15:03;28.70;;;12.10;;
24147;SDS011;12309;51.450;-2.624;2022-12-18T07:17:29;33.40;;;12.37;;
24147;SDS011;12309;51.450;-2.624;2022-12-18T07:19:55;32.00;;;12.43;;
24147;SDS011;12309;51.450;-2.624;2022-12-18T07:22:21;32.70;;;13.13;;
24147;SDS011;12309;51.450;-2.624;2022-12-18T07:24:47;32.60;;;13.27;;
24147;SDS011;12309;51.450;-2.624;2022-12-18T07:27:14;31.87;;;12.50;;
24147;SDS011;12309;51.450;-2.624;2022-12-18T07:29:40;29.30;;;13.33;;
24147;SDS011;12309;51.450;-2.624;2022-12-18T07:32:06;35.07;;;12.77;;
24147;SDS011;12309;51.450;-2.624;2022-12-18T07:34:32;29.77;;;12.50;;
24147;SDS011;12309;51.450;-2.624;2022-12-18T07:36:58;31.70;;;12.43;;
24147;SDS011;12309;51.450;-2.624;2022-12-18T07:39:23;36.77;;;13.27;;
24147;SDS011;12309;51.450;-2.624;2022-12-18T07:41:49;32.37;;;13.57;;
24147;SDS011;12309;51.450;-2.624;2022-12-18T07:44:35;27.93;;;12.90;;
24147;SDS011;12309;51.450;-2.624;2022-12-18T07:47:02;36.27;;;12.97;;
24147;SDS011;12309;51.450;-2.624;2022-12-18T07:49:28;31.53;;;13.20;;
24147;SDS011;12309;51.450;-2.624;2022-12-18T07:51:54;34.00;;;14.10;;
24147;SDS011;12309;51.450;-2.624;2022-12-18T07:54:21;31.67;;;13.00;;
24147;SDS011;12309;51.450;-2.624;2022-12-18T07:56:47;28.50;;;13.60;;
24147;SDS011;12309;51.450;-2.624;2022-12-18T07:59:13;32.77;;;12.37;;
24147;SDS011;12309;51.450;-2.624;2022-12-18T08:01:39;29.07;;;12.67;;
24147;SDS011;12309;51.450;-2.624;2022-12-18T08:04:04;26.83;;;12.60;;
24147;SDS011;12309;51.450;-2.624;2022-12-18T08:06:30;26.53;;;11.20;;
24147;SDS011;12309;51.450;-2.624;2022-12-18T08:08:56;25.43;;;11.37;;
24147;SDS011;12309;51.450;-2.624;2022-12-18T08:11:22;25.50;;;11.00;;
24147;SDS011;12309;51.450;-2.624;2022-12-18T08:13:50;23.20;;;10.63;;
24147;SDS011;12309;51.450;-2.624;2022-12-18T08:16:16;29.80;;;11.17;;
24147;SDS011;12309;51.450;-2.624;2022-12-18T08:18:42;22.47;;;10.83;;
24147;SDS011;12309;51.450;-2.624;2022-12-18T08:21:11;21.63;;;10.60;;
24147;SDS011;12309;51.450;-2.624;2022-12-18T08:23:43;25.70;;;10.33;;
24147;SDS011;12309;51.450;-2.624;2022-12-18T08:26:12;21.60;;;10.40;;
24147;SDS011;12309;51.450;-2.624;2022-12-18T08:28:38;27.63;;;11.47;;
24147;SDS011;12309;51.450;-2.624;2022-12-18T08:31:05;22.83;;;10.73;;
24147;SDS011;12309;51.450;-2.624;2022-12-18T08:33:31;34.57;;;11.20;;
24147;SDS011;12309;51.450;-2.624;2022-12-18T08:35:58;23.30;;;9.77;;
24147;SDS011;12309;51.450;-2.624;2022-12-18T08:38:24;27.37;;;10.37;;
24147;SDS011;12309;51.450;-2.624;2022-12-18T08:40:57;27.57;;;10.17;;
24147;SDS011;12309;51.450;-2.624;2022-12-18T08:43:30;23.83;;;10.23;;
24147;SDS011;12309;51.450;-2.624;2022-12-18T08:46:14;27.80;;;11.60;;
24147;SDS011;12309;51.450;-2.624;2022-12-18T08:48:40;29.43;;;12.00;;
24147;SDS011;12309;51.450;-2.624;2022-12-18T08:51:06;31.20;;;10.53;;
24147;SDS011;12309;51.450;-2.624;2022-12-18T08:53:34;28.37;;;10.57;;
24147;SDS011;12309;51.450;-2.624;2022-12-18T08:56:00;21.37;;;10.40;;
24147;SDS011;12309;51.450;-2.624;2022-12-18T08:58:26;24.00;;;10.13;;
24147;SDS011;12309;51.450;-2.624;2022-12-18T09:00:52;37.33;;;12.60;;
24147;SDS011;12309;51.450;-2.624;2022-12-18T09:03:18;24.20;;;8.60;;
24147;SDS011;12309;51.450;-2.624;2022-12-18T09:05:47;30.70;;;10.97;;
24147;SDS011;12309;51.450;-2.624;2022-12-18T09:08:13;30.27;;;10.60;;
24147;SDS011;12309;51.450;-2.624;2022-12-18T09:10:47;31.00;;;11.00;;
24147;SDS011;12309;51.450;-2.624;2022-12-18T09:13:14;26.63;;;9.33;;
24147;SDS011;12309;51.450;-2.624;2022-12-18T09:15:41;26.20;;;11.73;;
24147;SDS011;12309;51.450;-2.624;2022-12-18T09:18:08;23.93;;;10.37;;
24147;SDS011;12309;51.450;-2.624;2022-12-18T09:20:35;30.37;;;11.73;;
24147;SDS011;12309;51.450;-2.624;2022-12-18T09:23:01;24.20;;;10.20;;
24147;SDS011;12309;51.450;-2.624;2022-12-18T09:25:28;25.93;;;10.43;;
24147;SDS011;12309;51.450;-2.624;2022-12-18T09:27:58;27.63;;;10.93;;
24147;SDS011;12309;51.450;-2.624;2022-12-18T09:30:24;30.77;;;11.80;;
24147;SDS011;12309;51.450;-2.624;2022-12-18T09:32:50;27.63;;;12.00;;
24147;SDS011;12309;51.450;-2.624;2022-12-18T09:35:15;25.83;;;11.13;;
24147;SDS011;12309;51.450;-2.624;2022-12-18T09:37:42;27.23;;;11.70;;
24147;SDS011;12309;51.450;-2.624;2022-12-18T09:40:12;25.20;;;11.37;;
24147;SDS011;12309;51.450;-2.624;2022-12-18T09:42:40;29.00;;;11.37;;
24147;SDS011;12309;51.450;-2.624;2022-12-18T09:45:07;23.60;;;9.50;;
24147;SDS011;12309;51.450;-2.624;2022-12-18T09:47:39;26.47;;;11.67;;
24147;SDS011;12309;51.450;-2.624;2022-12-18T09:50:20;22.00;;;10.30;;
24147;SDS011;12309;51.450;-2.624;2022-12-18T09:52:48;22.33;;;10.20;;
24147;SDS011;12309;51.450;-2.624;2022-12-18T09:57:45;28.97;;;11.53;;
24147;SDS011;12309;51.450;-2.624;2022-12-18T10:00:17;26.00;;;11.07;;
24147;SDS011;12309;51.450;-2.624;2022-12-18T10:02:46;31.53;;;11.17;;
24147;SDS011;12309;51.450;-2.624;2022-12-18T10:05:13;29.27;;;11.03;;
24147;SDS011;12309;51.450;-2.624;2022-12-18T10:10:19;25.60;;;11.60;;
24147;SDS011;12309;51.450;-2.624;2022-12-18T10:12:55;25.87;;;11.60;;
24147;SDS011;12309;51.450;-2.624;2022-12-18T10:15:49;29.03;;;11.57;;
24147;SDS011;12309;51.450;-2.624;2022-12-18T10:18:32;20.30;;;8.40;;
24147;SDS011;12309;51.450;-2.624;2022-12-18T10:21:09;29.67;;;11.70;;
24147;SDS011;12309;51.450;-2.624;2022-12-18T10:26:08;22.37;;;11.27;;
24147;SDS011;12309;51.450;-2.624;2022-12-18T10:28:39;36.90;;;11.67;;
24147;SDS011;12309;51.450;-2.624;2022-12-18T10:31:06;30.87;;;12.80;;
24147;SDS011;12309;51.450;-2.624;2022-12-18T10:33:39;25.73;;;11.37;;
24147;SDS011;12309;51.450;-2.624;2022-12-18T10:36:06;29.80;;;11.73;;
24147;SDS011;12309;51.450;-2.624;2022-12-18T10:38:32;31.93;;;13.83;;
24147;SDS011;12309;51.450;-2.624;2022-12-18T10:43:47;21.57;;;8.37;;
24147;SDS011;12309;51.450;-2.624;2022-12-18T10:46:16;31.17;;;14.13;;
24147;SDS011;12309;51.450;-2.624;2022-12-18T10:51:32;27.87;;;14.27;;
24147;SDS011;12309;51.450;-2.624;2022-12-18T10:54:02;32.00;;;14.45;;
24147;SDS011;12309;51.450;-2.624;2022-12-18T10:56:38;34.07;;;13.63;;
24147;SDS011;12309;51.450;-2.624;2022-12-18T10:59:05;31.00;;;14.10;;
24147;SDS011;12309;51.450;-2.624;2022-12-18T11:04:22;25.30;;;11.13;;
24147;SDS011;12309;51.450;-2.624;2022-12-18T11:09:25;35.33;;;14.20;;
24147;SDS011;12309;51.450;-2.624;2022-12-18T11:11:57;27.50;;;12.30;;
24147;SDS011;12309;51.450;-2.624;2022-12-18T11:14:29;36.60;;;16.53;;
24147;SDS011;12309;51.450;-2.624;2022-12-18T11:16:59;34.57;;;17.10;;
24147;SDS011;12309;51.450;-2.624;2022-12-18T11:21:54;31.47;;;11.17;;
24147;SDS011;12309;51.450;-2.624;2022-12-18T11:26:47;32.70;;;13.53;;
24147;SDS011;12309;51.450;-2.624;2022-12-18T11:29:18;33.03;;;15.37;;
24147;SDS011;12309;51.450;-2.624;2022-12-18T11:31:48;47.60;;;18.60;;
24147;SDS011;12309;51.450;-2.624;2022-12-18T11:34:27;37.30;;;16.60;;
24147;SDS011;12309;51.450;-2.624;2022-12-18T11:36:57;26.40;;;10.93;;
24147;SDS011;12309;51.450;-2.624;2022-12-18T11:41:59;42.17;;;15.23;;
24147;SDS011;12309;51.450;-2.624;2022-12-18T11:44:38;27.00;;;10.00;;
24147;SDS011;12309;51.450;-2.624;2022-12-18T11:47:21;33.57;;;13.00;;
24147;SDS011;12309;51.450;-2.624;2022-12-18T11:50:00;36.90;;;16.63;;
24147;SDS011;12309;51.450;-2.624;2022-12-18T11:52:31;39.77;;;17.83;;
24147;SDS011;12309;51.450;-2.624;2022-12-18T11:55:05;37.33;;;16.57;;
24147;SDS011;12309;51.450;-2.624;2022-12-18T11:57:48;41.37;;;16.43;;
24147;SDS011;12309;51.450;-2.624;2022-12-18T12:00:28;28.00;;;12.93;;
24147;SDS011;12309;51.450;-2.624;2022-12-18T12:03:15;24.97;;;11.23;;
24147;SDS011;12309;51.450;-2.624;2022-12-18T12:14:53;35.30;;;13.60;;
24147;SDS011;12309;51.450;-2.624;2022-12-18T12:30:15;24.17;;;10.53;;
24147;SDS011;12309;51.450;-2.624;2022-12-18T12:35:47;26.27;;;10.43;;
24147;SDS011;12309;51.450;-2.624;2022-12-18T12:38:20;24.30;;;11.43;;
24147;SDS011;12309;51.450;-2.624;2022-12-18T12:40:54;19.83;;;8.97;;
24147;SDS011;12309;51.450;-2.624;2022-12-18T12:43:27;21.80;;;9.83;;
24147;SDS011;12309;51.450;-2.624;2022-12-18T12:46:13;20.97;;;9.00;;
24147;SDS011;12309;51.450;-2.624;2022-12-18T12:51:20;16.17;;;7.33;;
24147;SDS011;12309;51.450;-2.624;2022-12-18T12:53:55;20.30;;;10.10;;
24147;SDS011;12309;51.450;-2.624;2022-12-18T12:56:24;17.53;;;8.90;;
24147;SDS011;12309;51.450;-2.624;2022-12-18T13:10:38;19.77;;;10.87;;
24147;SDS011;12309;51.450;-2.624;2022-12-18T13:13:12;18.10;;;9.00;;
24147;SDS011;12309;51.450;-2.624;2022-12-18T13:18:21;15.60;;;8.13;;
24147;SDS011;12309;51.450;-2.624;2022-12-18T13:23:25;15.00;;;7.30;;
24147;SDS011;12309;51.450;-2.624;2022-12-18T13:28:21;15.57;;;6.93;;
24147;SDS011;12309;51.450;-2.624;2022-12-18T13:31:06;15.37;;;7.77;;
24147;SDS011;12309;51.450;-2.624;2022-12-18T13:33:39;13.70;;;7.80;;
24147;SDS011;12309;51.450;-2.624;2022-12-18T13:41:47;14.67;;;6.87;;
24147;SDS011;12309;51.450;-2.624;2022-12-18T13:46:59;10.10;;;6.03;;
24147;SDS011;12309;51.450;-2.624;2022-12-18T13:49:39;16.07;;;7.37;;
24147;SDS011;12309;51.450;-2.624;2022-12-18T13:52:20;13.67;;;6.83;;
24147;SDS011;12309;51.450;-2.624;2022-12-18T13:54:50;10.80;;;6.53;;
24147;SDS011;12309;51.450;-2.624;2022-12-18T13:57:28;10.10;;;6.00;;
24147;SDS011;12309;51.450;-2.624;2022-12-18T13:59:56;12.97;;;6.90;;
24147;SDS011;12309;51.450;-2.624;2022-12-18T14:02:26;7.07;;;4.57;;
24147;SDS011;12309;51.450;-2.624;2022-12-18T14:04:53;9.57;;;5.33;;
24147;SDS011;12309;51.450;-2.624;2022-12-18T14:07:24;9.27;;;4.00;;
24147;SDS011;12309;51.450;-2.624;2022-12-18T14:10:00;7.47;;;4.70;;
24147;SDS011;12309;51.450;-2.624;2022-12-18T14:12:28;5.30;;;2.93;;
24147;SDS011;12309;51.450;-2.624;2022-12-18T14:15:23;5.20;;;3.13;;
24147;SDS011;12309;51.450;-2.624;2022-12-18T14:17:50;4.03;;;2.77;;
24147;SDS011;12309;51.450;-2.624;2022-12-18T14:20:30;3.03;;;2.00;;
24147;SDS011;12309;51.450;-2.624;2022-12-18T14:22:58;4.97;;;2.73;;
24147;SDS011;12309;51.450;-2.624;2022-12-18T14:25:28;3.90;;;2.40;;
24147;SDS011;12309;51.450;-2.624;2022-12-18T14:33:09;3.43;;;1.67;;
24147;SDS011;12309;51.450;-2.624;2022-12-18T14:35:57;3.53;;;1.83;;
24147;SDS011;12309;51.450;-2.624;2022-12-18T14:38:35;3.73;;;1.77;;
24147;SDS011;12309;51.450;-2.624;2022-12-18T14:41:05;5.33;;;1.70;;
24147;SDS011;12309;51.450;-2.624;2022-12-18T14:43:36;4.47;;;1.70;;
24147;SDS011;12309;51.450;-2.624;2022-12-18T14:46:04;3.57;;;1.80;;
24147;SDS011;12309;51.450;-2.624;2022-12-18T14:48:49;1.47;;;0.77;;
24147;SDS011;12309;51.450;-2.624;2022-12-18T14:51:15;2.63;;;1.63;;
24147;SDS011;12309;51.450;-2.624;2022-12-18T14:53:52;4.33;;;1.40;;
24147;SDS011;12309;51.450;-2.624;2022-12-18T14:58:56;2.60;;;1.50;;
24147;SDS011;12309;51.450;-2.624;2022-12-18T15:04:02;3.97;;;1.40;;
24147;SDS011;12309;51.450;-2.624;2022-12-18T15:06:30;3.23;;;0.73;;
24147;SDS011;12309;51.450;-2.624;2022-12-18T15:09:02;2.13;;;1.10;;
24147;SDS011;12309;51.450;-2.624;2022-12-18T15:11:46;1.10;;;0.90;;
24147;SDS011;12309;51.450;-2.624;2022-12-18T15:17:18;3.03;;;1.20;;
24147;SDS011;12309;51.450;-2.624;2022-12-18T15:19:46;4.93;;;1.67;;
24147;SDS011;12309;51.450;-2.624;2022-12-18T15:24:50;4.30;;;1.80;;
24147;SDS011;12309;51.450;-2.624;2022-12-18T15:27:28;5.63;;;1.80;;
24147;SDS011;12309;51.450;-2.624;2022-12-18T15:30:24;2.40;;;1.00;;
24147;SDS011;12309;51.450;-2.624;2022-12-18T15:32:51;4.60;;;1.30;;
24147;SDS011;12309;51.450;-2.624;2022-12-18T15:35:37;4.23;;;1.40;;
24147;SDS011;12309;51.450;-2.624;2022-12-18T15:38:03;4.73;;;2.13;;
24147;SDS011;12309;51.450;-2.624;2022-12-18T15:40:28;2.43;;;0.90;;
24147;SDS011;12309;51.450;-2.624;2022-12-18T15:42:54;4.97;;;1.73;;
24147;SDS011;12309;51.450;-2.624;2022-12-18T15:45:40;4.20;;;1.50;;
24147;SDS011;12309;51.450;-2.624;2022-12-18T15:48:20;6.50;;;2.30;;
24147;SDS011;12309;51.450;-2.624;2022-12-18T15:50:47;4.37;;;2.03;;
24147;SDS011;12309;51.450;-2.624;2022-12-18T15:53:13;3.33;;;1.23;;
24147;SDS011;12309;51.450;-2.624;2022-12-18T15:55:39;3.20;;;1.30;;
24147;SDS011;12309;51.450;-2.624;2022-12-18T15:58:23;5.33;;;2.10;;
24147;SDS011;12309;51.450;-2.624;2022-12-18T16:00:49;4.83;;;1.40;;
24147;SDS011;12309;51.450;-2.624;2022-12-18T16:03:15;3.73;;;1.67;;
24147;SDS011;12309;51.450;-2.624;2022-12-18T16:05:41;4.40;;;2.63;;
24147;SDS011;12309;51.450;-2.624;2022-12-18T16:08:06;4.90;;;2.73;;
24147;SDS011;12309;51.450;-2.624;2022-12-18T16:10:32;2.97;;;1.77;;
24147;SDS011;12309;51.450;-2.624;2022-12-18T16:12:59;3.03;;;1.77;;
24147;SDS011;12309;51.450;-2.624;2022-12-18T16:15:25;4.70;;;2.10;;
24147;SDS011;12309;51.450;-2.624;2022-12-18T16:17:51;2.33;;;1.57;;
24147;SDS011;12309;51.450;-2.624;2022-12-18T16:20:18;5.13;;;1.87;;
24147;SDS011;12309;51.450;-2.624;2022-12-18T16:22:46;3.40;;;1.77;;
24147;SDS011;12309;51.450;-2.624;2022-12-18T16:25:17;10.13;;;2.47;;
24147;SDS011;12309;51.450;-2.624;2022-12-18T16:27:47;5.87;;;3.40;;
24147;SDS011;12309;51.450;-2.624;2022-12-18T16:30:17;4.37;;;2.30;;
24147;SDS011;12309;51.450;-2.624;2022-12-18T16:32:45;5.57;;;2.43;;
24147;SDS011;12309;51.450;-2.624;2022-12-18T16:35:12;7.77;;;3.90;;
24147;SDS011;12309;51.450;-2.624;2022-12-18T16:37:39;6.47;;;1.80;;
24147;SDS011;12309;51.450;-2.624;2022-12-18T16:40:06;3.90;;;1.73;;